createdAt,value
2019-05-11T00:01:26.090Z,80.75
2019-05-11T00:03:54.494Z,80.75
2019-05-11T00:06:22.926Z,80.67
2019-05-11T00:08:51.343Z,80.67
2019-05-11T00:11:19.729Z,80.61
2019-05-11T00:13:48.130Z,80.62
2019-05-11T00:16:19.044Z,80.58
2019-05-11T00:18:46.704Z,80.75
2019-05-11T00:21:15.095Z,80.95
2019-05-11T00:23:43.499Z,81.01
2019-05-11T00:26:12.225Z,81.01
2019-05-11T00:28:40.987Z,81.14
2019-05-11T00:31:09.707Z,81.14
2019-05-11T00:33:38.111Z,81.01
2019-05-11T00:36:06.771Z,81.25
2019-05-11T00:38:35.193Z,81.44
2019-05-11T00:41:03.598Z,81.44
2019-05-11T00:43:31.989Z,81.60
2019-05-11T00:46:00.719Z,81.71
2019-05-11T00:48:29.409Z,81.75
2019-05-11T00:50:58.091Z,81.82
2019-05-11T00:53:26.483Z,81.52
2019-05-11T00:55:54.950Z,81.39
2019-05-11T00:58:23.369Z,81.48
2019-05-11T01:00:51.738Z,81.82
2019-05-11T01:03:20.145Z,81.82
2019-05-11T01:05:48.655Z,82.15
2019-05-11T01:08:17.295Z,82.13
2019-05-11T01:10:45.699Z,82.46
2019-05-11T01:13:14.094Z,82.46
2019-05-11T01:15:42.482Z,82.35
2019-05-11T01:18:11.133Z,82.79
2019-05-11T01:20:39.837Z,82.80
2019-05-11T01:23:08.513Z,82.80
2019-05-11T01:25:37.211Z,82.71
2019-05-11T01:28:05.849Z,82.71
2019-05-11T01:30:34.591Z,82.74
2019-05-11T01:33:03.296Z,82.82
2019-05-11T01:35:31.964Z,83.34
2019-05-11T01:38:00.659Z,83.22
2019-05-11T01:40:29.050Z,83.40
2019-05-11T01:42:57.448Z,83.40
2019-05-11T01:45:25.833Z,83.75
2019-05-11T01:47:54.242Z,84.55
2019-05-11T01:50:22.975Z,84.55
2019-05-11T01:52:51.377Z,84.97
2019-05-11T01:55:20.051Z,84.92
2019-05-11T01:57:48.439Z,84.92
2019-05-11T02:00:16.910Z,84.55
2019-05-11T02:02:45.606Z,84.67
2019-05-11T02:05:30.286Z,84.67
2019-05-11T02:08:00.516Z,84.67
2019-05-11T02:10:29.688Z,84.62
2019-05-11T02:12:58.215Z,84.81
2019-05-11T02:15:26.745Z,84.81
2019-05-11T02:17:55.559Z,84.54
2019-05-11T02:20:23.960Z,84.64
2019-05-11T02:22:52.358Z,84.64
2019-05-11T02:25:21.012Z,84.31
2019-05-11T02:27:49.415Z,84.43
2019-05-11T02:30:18.167Z,84.43
2019-05-11T02:32:46.879Z,84.48
2019-05-11T02:35:15.875Z,84.71
2019-05-11T02:37:44.331Z,84.71
2019-05-11T02:40:13.468Z,84.44
2019-05-11T02:42:41.982Z,84.44
2019-05-11T02:45:12.131Z,84.60
2019-05-11T02:47:40.961Z,84.87
2019-05-11T02:50:09.358Z,84.87
2019-05-11T02:52:38.372Z,84.49
2019-05-11T02:55:08.403Z,84.48
2019-05-11T02:57:36.793Z,84.18
2019-05-11T03:00:09.689Z,83.96
2019-05-11T03:02:38.101Z,83.96
2019-05-11T03:05:07.967Z,84.01
2019-05-11T03:07:36.356Z,84.03
2019-05-11T03:10:06.922Z,83.97
2019-05-11T03:12:35.376Z,83.87
2019-05-11T03:15:05.681Z,83.87
2019-05-11T03:17:34.156Z,84.26
2019-05-11T03:20:02.635Z,84.48
2019-05-11T03:22:31.037Z,84.31
2019-05-11T03:24:59.528Z,84.31
2019-05-11T03:27:27.993Z,84.22
2019-05-11T03:30:00.647Z,85.01
2019-05-11T03:32:27.113Z,85.01
2019-05-11T03:34:55.529Z,85.36
2019-05-11T03:37:23.995Z,85.30
2019-05-11T03:39:52.673Z,85.30
2019-05-11T03:42:21.357Z,85.49
2019-05-11T03:44:50.048Z,85.49
2019-05-11T03:47:18.424Z,85.02
2019-05-11T03:49:46.816Z,85.02
2019-05-11T03:52:15.225Z,85.26
2019-05-11T03:54:43.634Z,85.26
2019-05-11T03:57:12.021Z,85.53
2019-05-11T03:59:40.750Z,85.53
2019-05-11T04:02:09.152Z,85.47
2019-05-11T04:04:37.824Z,85.51
2019-05-11T04:07:06.353Z,85.34
2019-05-11T04:09:35.215Z,85.34
2019-05-11T04:12:03.616Z,85.65
2019-05-11T04:14:32.289Z,85.65
2019-05-11T04:17:00.969Z,85.75
2019-05-11T04:19:29.375Z,85.75
2019-05-11T04:21:58.048Z,85.56
2019-05-11T04:24:26.443Z,85.25
2019-05-11T04:26:54.835Z,85.18
2019-05-11T04:29:23.503Z,84.63
2019-05-11T04:31:51.903Z,84.63
2019-05-11T04:34:20.322Z,84.67
2019-05-11T04:36:48.708Z,84.67
2019-05-11T04:39:17.129Z,84.08
2019-05-11T04:41:45.504Z,84.08
2019-05-11T04:44:13.899Z,84.24
2019-05-11T04:46:42.589Z,84.20
2019-05-11T04:49:10.997Z,84.29
2019-05-11T04:51:39.395Z,84.29
2019-05-11T04:54:07.861Z,84.62
2019-05-11T04:56:36.259Z,85.09
2019-05-11T04:59:04.658Z,85.44
2019-05-11T05:01:33.069Z,86.17
2019-05-11T05:04:13.262Z,86.35
2019-05-11T05:06:31.579Z,86.35
2019-05-11T05:09:03.784Z,86.13
2019-05-11T05:11:36.123Z,86.13
2019-05-11T05:14:01.894Z,86.48
2019-05-11T05:16:31.608Z,86.88
2019-05-11T05:19:00.091Z,86.88
2019-05-11T05:21:28.482Z,87.22
2019-05-11T05:23:57.107Z,87.07
2019-05-11T05:26:25.780Z,87.45
2019-05-11T05:28:54.145Z,88.14
2019-05-11T05:31:22.556Z,88.14
2019-05-11T05:33:50.965Z,87.84
2019-05-11T05:36:19.349Z,87.87
2019-05-11T05:38:47.776Z,87.87
2019-05-11T05:41:16.190Z,87.80
2019-05-11T05:43:44.652Z,87.80
2019-05-11T05:46:13.067Z,87.67
2019-05-11T05:48:41.444Z,87.62
2019-05-11T05:51:09.856Z,87.84
2019-05-11T05:53:38.247Z,87.60
2019-05-11T05:56:06.649Z,87.60
2019-05-11T05:58:35.096Z,87.60
2019-05-11T06:01:03.482Z,87.99
2019-05-11T06:03:32.191Z,87.99
2019-05-11T06:06:00.632Z,87.66
2019-05-11T06:08:29.005Z,87.72
2019-05-11T06:10:57.424Z,87.63
2019-05-11T06:13:42.768Z,87.78
2019-05-11T06:15:55.934Z,87.78
2019-05-11T06:18:24.353Z,87.57
2019-05-11T06:20:52.764Z,87.57
2019-05-11T06:23:21.402Z,87.54
2019-05-11T06:25:49.816Z,87.69
2019-05-11T06:28:18.222Z,87.76
2019-05-11T06:30:46.695Z,87.59
2019-05-11T06:33:15.071Z,87.59
2019-05-11T06:35:43.732Z,87.48
2019-05-11T06:38:12.130Z,86.91
2019-05-11T06:40:40.529Z,86.91
2019-05-11T06:43:08.917Z,86.99
2019-05-11T06:45:37.305Z,86.85
2019-05-11T06:48:05.760Z,86.88
2019-05-11T06:50:34.159Z,86.77
2019-05-11T06:53:02.602Z,86.31
2019-05-11T06:55:31.174Z,86.05
2019-05-11T06:57:59.569Z,86.02
2019-05-11T07:00:28.030Z,85.69
2019-05-11T07:02:56.479Z,85.88
2019-05-11T07:05:24.929Z,86.35
2019-05-11T07:07:53.322Z,86.00
2019-05-11T07:10:21.718Z,86.00
2019-05-11T07:12:50.116Z,86.24
2019-05-11T07:15:19.387Z,86.24
2019-05-11T07:17:47.812Z,86.06
2019-05-11T07:20:16.285Z,86.06
2019-05-11T07:22:44.947Z,86.06
2019-05-11T07:25:13.464Z,85.79
2019-05-11T07:27:41.951Z,85.64
2019-05-11T07:30:10.912Z,84.94
2019-05-11T07:32:39.327Z,84.52
2019-05-11T07:35:08.848Z,84.52
2019-05-11T07:37:38.542Z,84.52
2019-05-11T07:40:08.388Z,84.65
2019-05-11T07:42:38.073Z,84.73
2019-05-11T07:45:10.068Z,84.82
2019-05-11T07:47:38.460Z,85.14
2019-05-11T07:50:09.199Z,85.14
2019-05-11T07:52:38.012Z,84.97
2019-05-11T07:55:08.530Z,85.35
2019-05-11T07:57:39.102Z,85.90
2019-05-11T08:00:08.492Z,85.49
2019-05-11T08:02:48.202Z,85.49
2019-05-11T08:05:17.982Z,85.97
2019-05-11T08:07:48.168Z,85.73
2019-05-11T08:10:18.560Z,85.60
2019-05-11T08:12:48.255Z,85.74
2019-05-11T08:15:18.411Z,85.74
2019-05-11T08:17:48.783Z,85.94
2019-05-11T08:20:18.647Z,86.05
2019-05-11T08:22:48.165Z,85.86
2019-05-11T08:25:18.224Z,85.86
2019-05-11T08:27:48.564Z,85.97
2019-05-11T08:30:19.059Z,85.72
2019-05-11T08:32:49.384Z,85.72
2019-05-11T08:35:18.067Z,86.06
2019-05-11T08:37:47.869Z,85.83
2019-05-11T08:40:18.727Z,85.75
2019-05-11T08:42:48.166Z,85.60
2019-05-11T08:45:24.104Z,85.16
2019-05-11T08:47:48.523Z,84.88
2019-05-11T08:50:18.714Z,85.06
2019-05-11T08:52:47.996Z,84.71
2019-05-11T08:55:19.036Z,84.29
2019-05-11T08:57:47.957Z,83.87
2019-05-11T09:00:18.272Z,83.91
2019-05-11T09:02:50.669Z,83.55
2019-05-11T09:05:19.010Z,83.02
2019-05-11T09:07:48.433Z,83.79
2019-05-11T09:10:18.598Z,84.43
2019-05-11T09:12:52.200Z,84.39
2019-05-11T09:15:35.922Z,83.99
2019-05-11T09:17:51.007Z,83.28
2019-05-11T09:20:22.284Z,83.05
2019-05-11T09:22:50.679Z,82.91
2019-05-11T09:25:19.069Z,82.19
2019-05-11T09:27:48.392Z,82.77
2019-05-11T09:30:18.412Z,82.52
2019-05-11T09:32:49.932Z,82.83
2019-05-11T09:35:19.057Z,81.77
2019-05-11T09:37:48.459Z,82.93
2019-05-11T09:40:18.781Z,81.60
2019-05-11T09:42:47.892Z,82.04
2019-05-11T09:45:18.623Z,81.10
2019-05-11T09:47:47.855Z,80.98
2019-05-11T09:50:17.946Z,81.28
2019-05-11T09:52:48.709Z,82.08
2019-05-11T09:55:19.031Z,82.55
2019-05-11T09:57:48.712Z,81.94
2019-05-11T10:00:18.225Z,80.83
2019-05-11T10:02:48.777Z,80.91
2019-05-11T10:05:18.843Z,80.93
2019-05-11T10:07:48.441Z,80.22
2019-05-11T10:10:18.626Z,79.20
2019-05-11T10:12:48.543Z,78.45
2019-05-11T10:15:18.772Z,78.58
2019-05-11T10:17:48.333Z,76.61
2019-05-11T10:20:18.185Z,76.21
2019-05-11T10:22:48.669Z,77.76
2019-05-11T10:25:18.117Z,76.70
2019-05-11T10:27:48.928Z,76.28
2019-05-11T10:30:18.595Z,76.39
2019-05-11T10:32:52.865Z,74.79
2019-05-11T10:35:25.200Z,76.24
2019-05-11T10:37:53.854Z,75.74
2019-05-11T10:40:22.333Z,74.98
2019-05-11T10:42:50.743Z,75.04
2019-05-11T10:45:19.345Z,74.74
2019-05-11T10:47:48.992Z,74.67
2019-05-11T10:50:18.802Z,74.05
2019-05-11T10:52:48.416Z,74.72
2019-05-11T10:55:19.280Z,74.88
2019-05-11T10:57:48.743Z,74.24
2019-05-11T11:00:18.219Z,73.44
2019-05-11T11:02:47.724Z,73.20
2019-05-11T11:05:18.742Z,73.54
2019-05-11T11:07:48.443Z,73.31
2019-05-11T11:10:18.270Z,71.37
2019-05-11T11:12:57.828Z,71.81
2019-05-11T11:15:28.730Z,71.21
2019-05-11T11:17:57.910Z,69.95
2019-05-11T11:20:28.062Z,70.67
2019-05-11T11:22:58.371Z,69.47
2019-05-11T11:25:28.360Z,69.96
2019-05-11T11:27:57.821Z,69.35
2019-05-11T11:30:28.574Z,70.13
2019-05-11T11:32:58.738Z,67.54
2019-05-11T11:35:27.923Z,67.73
2019-05-11T11:37:58.510Z,67.66
2019-05-11T11:40:28.155Z,69.36
2019-05-11T11:43:01.632Z,69.28
2019-05-11T11:45:30.059Z,68.39
2019-05-11T11:47:58.569Z,66.12
2019-05-11T11:50:28.356Z,65.47
2019-05-11T11:52:57.894Z,66.42
2019-05-11T11:55:28.787Z,62.89
2019-05-11T11:57:58.663Z,63.41
2019-05-11T12:00:28.787Z,63.76
2019-05-11T12:02:57.988Z,62.70
2019-05-11T12:05:28.260Z,58.91
2019-05-11T12:07:58.002Z,59.58
2019-05-11T12:10:28.520Z,59.39
2019-05-11T12:12:58.119Z,60.22
2019-05-11T12:15:33.006Z,60.16
2019-05-11T12:18:01.413Z,61.27
2019-05-11T12:20:29.809Z,61.51
2019-05-11T12:22:58.436Z,60.77
2019-05-11T12:25:27.802Z,62.39
2019-05-11T12:27:57.714Z,59.57
2019-05-11T12:30:28.360Z,59.03
2019-05-11T12:32:57.741Z,59.91
2019-05-11T12:35:28.481Z,56.86
2019-05-11T12:37:58.532Z,57.57
2019-05-11T12:40:28.358Z,57.55
2019-05-11T12:42:59.045Z,57.21
2019-05-11T12:45:29.364Z,55.99
2019-05-11T12:47:58.686Z,56.16
2019-05-11T12:50:28.586Z,56.88
2019-05-11T12:52:58.845Z,56.52
2019-05-11T12:55:28.699Z,55.78
2019-05-11T12:57:57.952Z,55.84
2019-05-11T13:00:30.915Z,56.05
2019-05-11T13:02:58.758Z,55.32
2019-05-11T13:05:28.536Z,55.03
2019-05-11T13:07:58.629Z,55.31
2019-05-11T13:10:28.265Z,54.28
2019-05-11T13:12:58.098Z,56.91
2019-05-11T13:15:28.178Z,57.09
2019-05-11T13:17:58.149Z,58.34
2019-05-11T13:20:28.602Z,60.18
2019-05-11T13:22:58.763Z,61.03
2019-05-11T13:25:28.277Z,61.14
2019-05-11T13:27:58.124Z,62.43
2019-05-11T13:30:27.836Z,62.61
2019-05-11T13:32:57.979Z,61.43
2019-05-11T13:35:28.538Z,59.78
2019-05-11T13:37:58.463Z,57.47
2019-05-11T13:40:27.696Z,56.87
2019-05-11T13:42:58.176Z,56.08
2019-05-11T13:45:28.229Z,57.61
2019-05-11T13:47:59.227Z,58.82
2019-05-11T13:50:29.431Z,59.90
2019-05-11T13:52:58.383Z,60.41
2019-05-11T13:55:28.471Z,60.04
2019-05-11T13:57:57.835Z,61.48
2019-05-11T14:00:28.643Z,60.30
2019-05-11T14:02:58.535Z,59.62
2019-05-11T14:05:28.539Z,59.87
2019-05-11T14:07:58.645Z,59.35
2019-05-11T14:10:28.285Z,59.03
2019-05-11T14:12:58.085Z,57.20
2019-05-11T14:15:28.024Z,57.67
2019-05-11T14:18:05.603Z,57.32
2019-05-11T14:20:28.736Z,56.16
2019-05-11T14:22:58.260Z,57.09
2019-05-11T14:25:27.910Z,55.74
2019-05-11T14:27:56.466Z,57.00
2019-05-11T14:30:25.216Z,56.04
2019-05-11T14:32:53.641Z,56.69
2019-05-11T14:35:22.315Z,57.23
2019-05-11T14:37:50.698Z,56.73
2019-05-11T14:40:19.105Z,56.61
2019-05-11T14:42:49.031Z,56.10
2019-05-11T14:45:18.797Z,56.29
2019-05-11T14:47:47.761Z,54.73
2019-05-11T14:50:18.832Z,55.28
2019-05-11T14:52:48.870Z,55.06
2019-05-11T14:55:18.357Z,54.41
2019-05-11T14:57:48.544Z,53.79
2019-05-11T15:00:18.549Z,53.16
2019-05-11T15:02:49.398Z,52.59
2019-05-11T15:05:19.800Z,53.07
2019-05-11T15:07:52.059Z,54.54
2019-05-11T15:10:19.503Z,52.29
2019-05-11T15:12:48.852Z,52.64
2019-05-11T15:15:18.624Z,52.90
2019-05-11T15:17:49.244Z,50.86
2019-05-11T15:20:18.773Z,51.08
2019-05-11T15:22:48.918Z,51.15
2019-05-11T15:25:19.333Z,51.88
2019-05-11T15:27:48.761Z,50.73
2019-05-11T15:30:18.399Z,51.07
2019-05-11T15:32:48.229Z,50.61
2019-05-11T15:35:18.659Z,51.44
2019-05-11T15:37:48.810Z,51.72
2019-05-11T15:40:18.943Z,51.55
2019-05-11T15:42:48.653Z,52.77
2019-05-11T15:45:19.366Z,51.87
2019-05-11T15:47:48.757Z,51.42
2019-05-11T15:50:19.450Z,51.63
2019-05-11T15:52:48.743Z,51.99
2019-05-11T15:55:22.742Z,52.23
2019-05-11T15:57:51.393Z,52.50
2019-05-11T16:00:20.217Z,51.97
2019-05-11T16:02:49.239Z,52.93
2019-05-11T16:05:18.500Z,53.65
2019-05-11T16:07:49.227Z,52.90
2019-05-11T16:10:18.810Z,53.11
2019-05-11T16:12:48.553Z,51.92
2019-05-11T16:15:19.508Z,52.17
2019-05-11T16:17:48.726Z,52.52
2019-05-11T16:20:18.485Z,52.29
2019-05-11T16:22:47.934Z,51.78
2019-05-11T16:25:19.839Z,51.32
2019-05-11T16:27:47.286Z,52.38
2019-05-11T16:30:20.850Z,51.90
2019-05-11T16:32:48.055Z,52.33
2019-05-11T16:35:17.986Z,52.89
2019-05-11T16:37:48.720Z,53.00
2019-05-11T16:40:20.128Z,52.10
2019-05-11T16:42:47.899Z,52.24
2019-05-11T16:45:18.897Z,53.53
2019-05-11T16:47:48.267Z,52.86
2019-05-11T16:50:18.176Z,52.78
2019-05-11T16:52:48.159Z,53.44
2019-05-11T16:55:18.468Z,52.69
2019-05-11T16:57:48.429Z,53.09
2019-05-11T17:00:17.900Z,53.14
2019-05-11T17:02:48.664Z,53.38
2019-05-11T17:05:25.903Z,53.78
2019-05-11T17:07:48.386Z,54.79
2019-05-11T17:10:18.261Z,53.81
2019-05-11T17:12:48.213Z,54.11
2019-05-11T17:15:20.148Z,54.01
2019-05-11T17:17:51.752Z,53.54
2019-05-11T17:20:20.188Z,54.04
2019-05-11T17:22:49.045Z,53.74
2019-05-11T17:25:19.279Z,53.22
2019-05-11T17:27:48.631Z,54.19
2019-05-11T17:30:19.261Z,54.81
2019-05-11T17:32:49.297Z,54.29
2019-05-11T17:35:17.929Z,55.57
2019-05-11T17:37:48.536Z,54.76
2019-05-11T17:40:19.428Z,55.43
2019-05-11T17:42:48.064Z,55.38
2019-05-11T17:45:18.992Z,55.19
2019-05-11T17:47:47.273Z,55.09
2019-05-11T17:50:15.733Z,55.55
2019-05-11T17:52:44.122Z,54.98
2019-05-11T17:55:15.208Z,54.47
2019-05-11T17:57:43.692Z,53.47
2019-05-11T18:00:12.218Z,53.47
2019-05-11T18:02:40.622Z,53.18
2019-05-11T18:05:14.183Z,53.60
2019-05-11T18:07:42.800Z,53.46
2019-05-11T18:10:11.868Z,53.67
2019-05-11T18:12:40.257Z,53.38
2019-05-11T18:15:09.437Z,53.66
2019-05-11T18:17:44.020Z,54.34
2019-05-11T18:20:18.647Z,54.75
2019-05-11T18:22:45.517Z,55.51
2019-05-11T18:25:18.565Z,55.52
2019-05-11T18:27:48.207Z,55.23
2019-05-11T18:30:16.946Z,55.85
2019-05-11T18:32:49.369Z,56.04
2019-05-11T18:35:19.463Z,56.83
2019-05-11T18:37:48.230Z,56.40
2019-05-11T18:40:18.677Z,55.41
2019-05-11T18:42:48.713Z,56.57
2019-05-11T18:45:18.826Z,56.75
2019-05-11T18:47:48.853Z,57.39
2019-05-11T18:50:29.460Z,57.89
2019-05-11T18:52:49.037Z,57.66
2019-05-11T18:55:18.933Z,57.96
2019-05-11T18:57:49.087Z,58.29
2019-05-11T19:00:18.512Z,58.01
2019-05-11T19:02:49.368Z,58.26
2019-05-11T19:05:18.043Z,58.96
2019-05-11T19:07:48.152Z,59.13
2019-05-11T19:10:16.998Z,59.70
2019-05-11T19:12:45.413Z,60.04
2019-05-11T19:15:14.337Z,60.15
2019-05-11T19:17:42.750Z,60.54
2019-05-11T19:20:11.483Z,60.44
2019-05-11T19:22:40.137Z,61.47
2019-05-11T19:25:09.239Z,60.95
2019-05-11T19:27:37.939Z,60.90
2019-05-11T19:30:08.516Z,60.72
2019-05-11T19:32:38.265Z,60.37
2019-05-11T19:35:08.864Z,58.28
2019-05-11T19:37:38.694Z,58.10
2019-05-11T19:40:09.074Z,57.03
2019-05-11T19:42:54.195Z,55.74
2019-05-11T19:45:23.283Z,54.94
2019-05-11T19:47:51.723Z,54.15
2019-05-11T19:50:20.589Z,53.67
2019-05-11T19:52:48.972Z,53.49
2019-05-11T19:55:18.165Z,53.14
2019-05-11T19:57:48.298Z,53.57
2019-05-11T20:00:18.454Z,53.00
2019-05-11T20:02:47.014Z,53.04
2019-05-11T20:05:15.418Z,53.07
2019-05-11T20:07:43.823Z,53.23
2019-05-11T20:10:12.364Z,53.10
2019-05-11T20:12:41.897Z,53.13
2019-05-11T20:15:10.678Z,53.54
2019-05-11T20:17:39.321Z,53.33
2019-05-11T20:20:09.048Z,54.20
2019-05-11T20:22:39.039Z,54.32
2019-05-11T20:25:09.234Z,54.30
2019-05-11T20:27:38.804Z,54.22
2019-05-11T20:30:08.577Z,54.27
2019-05-11T20:32:38.867Z,54.03
2019-05-11T20:35:08.514Z,53.91
2019-05-11T20:37:38.415Z,54.19
2019-05-11T20:40:09.100Z,55.01
2019-05-11T20:42:38.049Z,54.11
2019-05-11T20:45:07.738Z,54.27
2019-05-11T20:47:38.150Z,53.93
2019-05-11T20:50:07.986Z,54.88
2019-05-11T20:52:38.786Z,54.23
2019-05-11T20:55:08.981Z,54.45
2019-05-11T20:57:39.160Z,54.15
2019-05-11T21:00:09.603Z,54.17
2019-05-11T21:02:38.347Z,55.04
2019-05-11T21:05:10.121Z,54.88
2019-05-11T21:07:39.131Z,54.61
2019-05-11T21:10:09.036Z,54.94
2019-05-11T21:12:38.616Z,55.41
2019-05-11T21:15:09.257Z,54.71
2019-05-11T21:17:37.724Z,54.34
2019-05-11T21:20:08.195Z,54.50
2019-05-11T21:22:40.033Z,54.73
2019-05-11T21:25:09.285Z,55.16
2019-05-11T21:27:38.648Z,54.66
2019-05-11T21:30:09.830Z,54.66
2019-05-11T21:32:40.169Z,54.99
2019-05-11T21:35:09.458Z,54.65
2019-05-11T21:37:39.040Z,54.68
2019-05-11T21:40:08.945Z,55.79
2019-05-11T21:42:39.026Z,55.67
2019-05-11T21:45:09.488Z,56.01
2019-05-11T21:47:38.978Z,56.01
2019-05-11T21:50:09.343Z,56.22
2019-05-11T21:52:38.567Z,56.22
2019-05-11T21:55:09.381Z,56.25
2019-05-11T21:57:38.137Z,56.25
2019-05-11T22:00:10.682Z,56.09
2019-05-11T22:02:39.239Z,56.52
2019-05-11T22:05:09.063Z,56.93
2019-05-11T22:07:41.361Z,57.33
2019-05-11T22:10:09.351Z,57.27
2019-05-11T22:12:39.132Z,57.39
2019-05-11T22:15:09.873Z,57.97
2019-05-11T22:17:39.340Z,57.97
2019-05-11T22:20:09.254Z,58.74
2019-05-11T22:22:38.916Z,59.08
2019-05-11T22:25:08.706Z,59.08
2019-05-11T22:27:38.948Z,59.39
2019-05-11T22:30:08.601Z,59.63
2019-05-11T22:32:38.470Z,59.90
2019-05-11T22:35:08.537Z,59.85
2019-05-11T22:37:38.557Z,60.23
2019-05-11T22:40:08.571Z,60.23
2019-05-11T22:42:37.346Z,60.26
2019-05-11T22:45:08.524Z,60.45
2019-05-11T22:47:39.392Z,60.83
2019-05-11T22:50:08.893Z,60.83
2019-05-11T22:52:40.160Z,60.61
2019-05-11T22:55:11.869Z,61.71
2019-05-11T22:57:39.282Z,61.71
2019-05-11T23:00:09.511Z,61.61
2019-05-11T23:02:38.465Z,61.60
2019-05-11T23:05:08.893Z,61.97
2019-05-11T23:07:41.207Z,62.95
2019-05-11T23:10:09.768Z,62.33
2019-05-11T23:12:38.884Z,62.33
2019-05-11T23:15:14.514Z,63.06
2019-05-11T23:17:43.190Z,62.80
2019-05-11T23:20:12.206Z,63.34
2019-05-11T23:22:57.390Z,63.36
2019-05-11T23:25:19.973Z,63.88
2019-05-11T23:27:48.991Z,63.52
2019-05-11T23:30:19.678Z,63.97
2019-05-11T23:32:48.998Z,63.88
2019-05-11T23:35:18.711Z,64.16
2019-05-11T23:37:49.369Z,64.16
2019-05-11T23:40:18.737Z,64.50
2019-05-11T23:42:49.041Z,64.26
2019-05-11T23:45:18.882Z,64.43
2019-05-11T23:47:48.805Z,64.82
2019-05-11T23:50:18.913Z,65.19
2019-05-11T23:52:50.118Z,65.19
2019-05-11T23:55:19.259Z,64.50
2019-05-11T23:57:48.757Z,64.69
